createdAt,value
2018-11-23T00:01:49.683Z,1.60
2018-11-23T00:04:18.146Z,1.60
2018-11-23T00:06:46.581Z,1.60
2018-11-23T00:09:15.005Z,1.60
2018-11-23T00:11:43.419Z,1.60
2018-11-23T00:14:11.856Z,1.60
2018-11-23T00:16:40.435Z,1.60
2018-11-23T00:19:08.887Z,1.40
2018-11-23T00:21:37.291Z,1.40
2018-11-23T00:24:05.959Z,1.50
2018-11-23T00:26:34.385Z,1.50
2018-11-23T00:29:02.794Z,1.50
2018-11-23T00:31:31.232Z,1.40
2018-11-23T00:33:59.635Z,1.40
2018-11-23T00:36:28.076Z,1.40
2018-11-23T00:38:57.155Z,1.40
2018-11-23T00:41:25.574Z,1.30
2018-11-23T00:43:53.957Z,1.30
2018-11-23T00:46:22.394Z,1.30
2018-11-23T00:48:50.899Z,1.30
2018-11-23T00:51:19.281Z,1.30
2018-11-23T00:53:47.697Z,1.30
2018-11-23T00:56:16.085Z,1.30
2018-11-23T00:58:44.585Z,1.30
2018-11-23T01:01:13.003Z,1.20
2018-11-23T01:03:41.434Z,1.10
2018-11-23T01:06:09.813Z,1.00
2018-11-23T01:08:38.231Z,1.00
2018-11-23T01:11:06.666Z,0.90
2018-11-23T01:13:35.093Z,0.90
2018-11-23T01:16:03.505Z,0.80
2018-11-23T01:18:31.885Z,0.80
2018-11-23T01:21:02.182Z,0.80
2018-11-23T01:23:30.580Z,0.80
2018-11-23T01:25:59.018Z,0.80
2018-11-23T01:28:27.456Z,0.80
2018-11-23T01:30:55.834Z,0.80
2018-11-23T01:33:24.226Z,0.90
2018-11-23T01:35:52.642Z,0.80
2018-11-23T01:38:21.022Z,0.80
2018-11-23T01:40:49.452Z,0.80
2018-11-23T01:43:17.833Z,0.80
2018-11-23T01:45:46.213Z,0.80
2018-11-23T01:48:14.641Z,0.80
2018-11-23T01:50:43.030Z,0.70
2018-11-23T01:53:11.438Z,0.70
2018-11-23T01:55:39.822Z,0.70
2018-11-23T01:58:08.237Z,0.70
2018-11-23T02:00:36.689Z,0.60
2018-11-23T02:03:05.380Z,0.60
2018-11-23T02:05:33.796Z,0.60
2018-11-23T02:08:02.193Z,0.60
2018-11-23T02:10:30.701Z,0.60
2018-11-23T02:12:59.105Z,0.60
2018-11-23T02:15:27.507Z,0.60
2018-11-23T02:17:55.902Z,0.50
2018-11-23T02:20:24.277Z,0.60
2018-11-23T02:22:53.399Z,0.70
2018-11-23T02:25:21.890Z,0.70
2018-11-23T02:27:50.302Z,0.70
2018-11-23T02:30:21.109Z,0.70
2018-11-23T02:32:49.557Z,0.70
2018-11-23T02:35:18.274Z,0.70
2018-11-23T02:37:46.710Z,0.70
2018-11-23T02:40:17.283Z,0.70
2018-11-23T02:42:45.945Z,0.60
2018-11-23T02:45:19.687Z,0.70
2018-11-23T02:47:48.650Z,0.60
2018-11-23T02:50:17.082Z,0.60
2018-11-23T02:52:45.817Z,0.60
2018-11-23T02:55:15.358Z,0.60
2018-11-23T02:57:43.766Z,0.60
2018-11-23T03:00:15.804Z,0.60
2018-11-23T03:02:44.357Z,0.70
2018-11-23T03:05:18.705Z,0.70
2018-11-23T03:07:47.093Z,0.70
2018-11-23T03:10:16.200Z,0.60
2018-11-23T03:12:45.470Z,0.70
2018-11-23T03:15:15.503Z,0.70
2018-11-23T03:17:44.685Z,0.70
2018-11-23T03:20:21.169Z,0.70
2018-11-23T03:22:49.553Z,0.60
2018-11-23T03:25:17.979Z,0.60
2018-11-23T03:27:46.385Z,0.70
2018-11-23T03:30:18.916Z,0.70
2018-11-23T03:32:48.465Z,0.60
2018-11-23T03:35:17.414Z,0.60
2018-11-23T03:37:46.230Z,0.60
2018-11-23T03:40:14.624Z,0.60
2018-11-23T03:42:43.026Z,0.60
2018-11-23T03:45:12.802Z,0.50
2018-11-23T03:47:41.875Z,0.50
2018-11-23T03:50:11.590Z,0.40
2018-11-23T03:52:40.380Z,0.60
2018-11-23T03:55:08.801Z,0.60
2018-11-23T03:57:37.218Z,0.50
2018-11-23T04:00:17.084Z,0.40
2018-11-23T04:02:40.198Z,0.50
2018-11-23T04:05:08.914Z,0.40
2018-11-23T04:07:37.317Z,0.50
2018-11-23T04:10:07.260Z,0.50
2018-11-23T04:12:35.662Z,0.50
2018-11-23T04:15:04.137Z,0.50
2018-11-23T04:17:32.522Z,0.50
2018-11-23T04:20:00.947Z,0.50
2018-11-23T04:22:29.356Z,0.50
2018-11-23T04:24:57.801Z,0.50
2018-11-23T04:27:26.181Z,0.60
2018-11-23T04:29:54.569Z,0.50
2018-11-23T04:32:22.958Z,0.50
2018-11-23T04:34:51.359Z,0.50
2018-11-23T04:37:19.733Z,0.50
2018-11-23T04:39:48.113Z,0.50
2018-11-23T04:42:16.513Z,0.60
2018-11-23T04:44:44.901Z,0.70
2018-11-23T04:47:13.353Z,0.80
2018-11-23T04:49:41.750Z,0.90
2018-11-23T04:52:10.146Z,1.00
2018-11-23T04:54:38.533Z,1.00
2018-11-23T04:57:06.958Z,1.10
2018-11-23T04:59:35.369Z,1.10
2018-11-23T05:02:03.773Z,1.20
2018-11-23T05:04:32.218Z,1.20
2018-11-23T05:07:00.612Z,1.10
2018-11-23T05:09:28.996Z,1.10
2018-11-23T05:11:57.404Z,1.00
2018-11-23T05:14:25.800Z,1.00
2018-11-23T05:16:54.211Z,1.00
2018-11-23T05:19:22.608Z,1.00
2018-11-23T05:21:51.001Z,1.10
2018-11-23T05:24:19.953Z,1.20
2018-11-23T05:26:48.333Z,1.20
2018-11-23T05:29:16.737Z,1.30
2018-11-23T05:31:45.320Z,1.30
2018-11-23T05:34:13.720Z,1.30
2018-11-23T05:36:43.239Z,1.20
2018-11-23T05:39:11.892Z,1.20
2018-11-23T05:41:40.313Z,1.20
2018-11-23T05:44:08.773Z,1.20
2018-11-23T05:46:37.233Z,1.20
2018-11-23T05:49:05.982Z,1.20
2018-11-23T05:51:34.385Z,1.10
2018-11-23T05:54:02.872Z,1.10
2018-11-23T05:56:31.298Z,1.10
2018-11-23T05:58:59.690Z,1.00
2018-11-23T06:01:28.071Z,1.00
2018-11-23T06:03:56.482Z,1.00
2018-11-23T06:06:25.888Z,1.00
2018-11-23T06:08:53.314Z,1.00
2018-11-23T06:11:21.697Z,1.00
2018-11-23T06:13:50.156Z,0.90
2018-11-23T06:16:18.542Z,0.90
2018-11-23T06:18:47.873Z,0.80
2018-11-23T06:21:16.277Z,0.80
2018-11-23T06:23:44.676Z,0.70
2018-11-23T06:26:23.357Z,0.70
2018-11-23T06:28:51.945Z,0.80
2018-11-23T06:31:20.362Z,0.80
2018-11-23T06:33:49.393Z,0.70
2018-11-23T06:36:17.789Z,0.70
2018-11-23T06:38:46.213Z,0.90
2018-11-23T06:41:14.622Z,0.90
2018-11-23T06:43:43.013Z,0.90
2018-11-23T06:46:12.273Z,1.00
2018-11-23T06:48:40.682Z,1.10
2018-11-23T06:51:09.397Z,1.10
2018-11-23T06:53:38.082Z,1.10
2018-11-23T06:56:06.853Z,1.10
2018-11-23T06:58:35.332Z,1.00
2018-11-23T07:01:03.766Z,1.00
2018-11-23T07:03:32.317Z,1.10
2018-11-23T07:06:00.739Z,1.10
2018-11-23T07:08:29.160Z,1.10
2018-11-23T07:10:59.498Z,1.10
2018-11-23T07:13:28.989Z,1.10
2018-11-23T07:15:57.410Z,1.10
2018-11-23T07:18:25.872Z,1.20
2018-11-23T07:20:54.241Z,1.10
2018-11-23T07:23:22.693Z,1.20
2018-11-23T07:25:51.234Z,1.30
2018-11-23T07:28:19.646Z,1.40
2018-11-23T07:30:48.106Z,1.60
2018-11-23T07:33:16.656Z,1.80
2018-11-23T07:35:45.053Z,2.00
2018-11-23T07:38:13.458Z,2.20
2018-11-23T07:40:53.942Z,2.30
2018-11-23T07:43:22.360Z,2.20
2018-11-23T07:45:50.819Z,2.20
2018-11-23T07:48:19.194Z,2.30
2018-11-23T07:50:47.637Z,2.50
2018-11-23T07:53:16.022Z,2.60
2018-11-23T07:55:44.445Z,2.60
2018-11-23T07:58:12.879Z,2.80
2018-11-23T08:00:41.309Z,3.00
2018-11-23T08:03:09.707Z,3.30
2018-11-23T08:05:38.121Z,3.60
2018-11-23T08:08:06.931Z,3.80
2018-11-23T08:10:34.537Z,3.70
2018-11-23T08:13:02.997Z,3.60
2018-11-23T08:15:32.054Z,3.60
2018-11-23T08:18:00.576Z,3.70
2018-11-23T08:20:28.984Z,4.00
2018-11-23T08:22:57.434Z,4.20
2018-11-23T08:25:26.550Z,4.00
2018-11-23T08:27:56.161Z,3.90
2018-11-23T08:30:28.057Z,4.00
2018-11-23T08:32:56.945Z,4.00
2018-11-23T08:35:25.355Z,3.50
2018-11-23T08:37:53.757Z,3.50
2018-11-23T08:40:23.695Z,3.70
2018-11-23T08:42:52.686Z,4.40
2018-11-23T08:45:22.591Z,4.90
2018-11-23T08:47:51.137Z,4.90
2018-11-23T08:50:22.285Z,5.00
2018-11-23T08:52:51.520Z,5.00
2018-11-23T08:55:20.410Z,4.90
2018-11-23T08:57:48.893Z,4.60
2018-11-23T09:00:21.418Z,4.50
2018-11-23T09:02:51.161Z,4.80
2018-11-23T09:05:19.673Z,4.90
2018-11-23T09:07:49.255Z,5.00
2018-11-23T09:10:19.266Z,5.20
2018-11-23T09:12:49.566Z,5.50
2018-11-23T09:15:18.050Z,4.90
2018-11-23T09:17:46.644Z,4.20
2018-11-23T09:20:15.945Z,3.90
2018-11-23T09:22:44.390Z,3.90
2018-11-23T09:25:15.377Z,4.00
2018-11-23T09:27:43.777Z,4.10
2018-11-23T09:30:18.991Z,4.00
2018-11-23T09:32:48.041Z,4.00
2018-11-23T09:35:16.441Z,4.00
2018-11-23T09:37:45.254Z,4.00
2018-11-23T09:40:18.668Z,4.00
2018-11-23T09:42:47.442Z,4.20
2018-11-23T09:45:17.846Z,4.30
2018-11-23T09:47:47.253Z,4.50
2018-11-23T09:50:17.275Z,4.60
2018-11-23T09:52:46.617Z,4.70
2018-11-23T09:55:15.166Z,4.80
2018-11-23T09:57:43.851Z,5.00
2018-11-23T10:00:15.203Z,5.00
2018-11-23T10:02:44.280Z,4.80
2018-11-23T10:05:13.700Z,4.80
2018-11-23T10:07:43.386Z,4.90
2018-11-23T10:10:12.585Z,4.90
2018-11-23T10:12:41.481Z,5.00
2018-11-23T10:15:11.377Z,5.10
2018-11-23T10:17:39.994Z,5.00
2018-11-23T10:20:11.651Z,5.10
2018-11-23T10:22:40.086Z,5.20
2018-11-23T10:25:10.500Z,5.20
2018-11-23T10:27:39.427Z,5.40
2018-11-23T10:30:10.325Z,5.50
2018-11-23T10:32:38.749Z,5.60
2018-11-23T10:35:08.366Z,5.80
2018-11-23T10:37:37.139Z,5.80
2018-11-23T10:40:08.430Z,5.80
2018-11-23T10:42:37.694Z,5.90
2018-11-23T10:45:14.145Z,5.90
2018-11-23T10:47:42.622Z,6.00
2018-11-23T10:50:14.792Z,6.10
2018-11-23T10:52:43.374Z,6.20
2018-11-23T10:55:14.342Z,6.40
2018-11-23T10:57:42.793Z,6.60
2018-11-23T11:00:20.634Z,6.40
2018-11-23T11:02:54.969Z,6.50
2018-11-23T11:05:28.666Z,6.50
2018-11-23T11:07:58.509Z,7.20
2018-11-23T11:10:27.017Z,8.00
2018-11-23T11:12:55.433Z,8.80
2018-11-23T11:15:23.981Z,9.50
2018-11-23T11:17:52.457Z,10.30
2018-11-23T11:20:21.242Z,11.30
2018-11-23T11:22:49.821Z,11.70
2018-11-23T11:25:18.234Z,12.10
2018-11-23T11:27:46.653Z,12.00
2018-11-23T11:30:16.797Z,12.00
2018-11-23T11:32:45.790Z,11.60
2018-11-23T11:35:14.369Z,11.40
2018-11-23T11:37:43.873Z,11.80
2018-11-23T11:40:13.709Z,11.70
2018-11-23T11:42:42.701Z,11.90
2018-11-23T11:45:12.995Z,11.60
2018-11-23T11:47:42.130Z,11.70
2018-11-23T11:50:11.485Z,11.50
2018-11-23T11:52:41.314Z,11.50
2018-11-23T11:55:12.057Z,11.30
2018-11-23T11:57:40.496Z,11.50
2018-11-23T12:00:11.722Z,11.50
2018-11-23T12:02:40.321Z,12.00
2018-11-23T12:05:10.277Z,11.80
2018-11-23T12:07:38.729Z,11.90
2018-11-23T12:10:09.589Z,11.60
2018-11-23T12:12:38.297Z,11.30
2018-11-23T12:15:07.969Z,11.10
2018-11-23T12:17:36.370Z,11.00
2018-11-23T12:20:06.878Z,10.80
2018-11-23T12:22:35.265Z,10.90
2018-11-23T12:25:03.951Z,10.90
2018-11-23T12:27:32.484Z,11.00
2018-11-23T12:30:00.893Z,11.50
2018-11-23T12:32:29.509Z,11.20
2018-11-23T12:34:57.909Z,11.00
2018-11-23T12:37:26.349Z,10.90
2018-11-23T12:39:54.942Z,11.40
2018-11-23T12:42:23.527Z,11.30
2018-11-23T12:44:51.942Z,11.40
2018-11-23T12:47:20.569Z,11.30
2018-11-23T12:49:48.992Z,11.20
2018-11-23T12:52:17.441Z,11.30
2018-11-23T12:54:45.851Z,11.50
2018-11-23T12:57:14.390Z,11.50
2018-11-23T12:59:42.800Z,11.70
2018-11-23T13:02:11.224Z,11.50
2018-11-23T13:04:39.665Z,11.10
2018-11-23T13:07:08.738Z,11.10
2018-11-23T13:09:37.868Z,11.00
2018-11-23T13:12:06.313Z,11.20
2018-11-23T13:14:34.718Z,11.30
2018-11-23T13:17:03.142Z,11.50
2018-11-23T13:19:31.549Z,11.50
2018-11-23T13:21:59.943Z,11.30
2018-11-23T13:24:28.337Z,11.10
2018-11-23T13:26:56.745Z,11.20
2018-11-23T13:29:25.189Z,11.30
2018-11-23T13:31:53.609Z,11.30
2018-11-23T13:34:22.027Z,11.40
2018-11-23T13:36:50.445Z,11.30
2018-11-23T13:39:18.949Z,11.00
2018-11-23T13:41:47.415Z,11.00
2018-11-23T13:44:16.393Z,11.00
2018-11-23T13:46:44.797Z,11.10
2018-11-23T13:49:13.211Z,11.00
2018-11-23T13:51:41.682Z,10.90
2018-11-23T13:54:10.109Z,10.80
2018-11-23T13:56:38.557Z,10.80
2018-11-23T13:59:06.973Z,10.80
2018-11-23T14:01:35.463Z,10.60
2018-11-23T14:04:03.912Z,10.40
2018-11-23T14:06:32.487Z,10.20
2018-11-23T14:09:00.876Z,9.90
2018-11-23T14:11:29.278Z,9.80
2018-11-23T14:13:57.685Z,9.70
2018-11-23T14:16:26.089Z,9.60
2018-11-23T14:18:54.529Z,9.50
2018-11-23T14:21:23.050Z,9.60
2018-11-23T14:23:51.650Z,9.50
2018-11-23T14:26:20.061Z,9.50
2018-11-23T14:28:48.549Z,9.40
2018-11-23T14:31:17.002Z,9.40
2018-11-23T14:33:45.493Z,9.40
2018-11-23T14:36:13.953Z,9.40
2018-11-23T14:38:42.370Z,9.40
2018-11-23T14:41:10.810Z,9.30
2018-11-23T14:43:39.309Z,9.20
2018-11-23T14:46:07.766Z,9.20
2018-11-23T14:48:36.209Z,9.10
2018-11-23T14:51:04.867Z,9.10
2018-11-23T14:53:33.341Z,9.00
2018-11-23T14:56:01.778Z,8.90
2018-11-23T14:58:30.265Z,8.80
2018-11-23T15:00:58.693Z,8.70
2018-11-23T15:03:27.278Z,8.70
2018-11-23T15:05:55.706Z,8.60
2018-11-23T15:08:24.162Z,8.50
2018-11-23T15:10:52.724Z,8.30
2018-11-23T15:13:21.131Z,8.20
2018-11-23T15:15:49.585Z,8.00
2018-11-23T15:18:18.038Z,8.00
2018-11-23T15:20:47.360Z,8.00
2018-11-23T15:23:19.189Z,8.00
2018-11-23T15:25:47.612Z,7.90
2018-11-23T15:28:16.478Z,7.80
2018-11-23T15:30:46.104Z,7.70
2018-11-23T15:33:16.033Z,7.60
2018-11-23T15:35:45.321Z,7.30
2018-11-23T15:38:18.607Z,7.20
2018-11-23T15:40:47.407Z,7.10
2018-11-23T15:43:17.009Z,7.00
2018-11-23T15:45:45.458Z,7.00
2018-11-23T15:48:13.920Z,6.90
2018-11-23T15:50:43.059Z,6.60
2018-11-23T15:53:13.066Z,6.40
2018-11-23T15:55:41.938Z,6.10
2018-11-23T15:58:12.013Z,5.90
2018-11-23T16:00:42.969Z,5.70
2018-11-23T16:03:12.302Z,5.50
2018-11-23T16:05:40.873Z,5.30
2018-11-23T16:08:13.833Z,5.30
2018-11-23T16:10:42.279Z,5.20
2018-11-23T16:13:11.844Z,5.10
2018-11-23T16:15:40.286Z,5.00
2018-11-23T16:18:09.325Z,5.10
2018-11-23T16:20:39.981Z,4.90
2018-11-23T16:23:10.221Z,4.90
2018-11-23T16:25:38.992Z,5.00
2018-11-23T16:28:08.660Z,5.00
2018-11-23T16:30:38.596Z,4.90
2018-11-23T16:33:08.713Z,4.70
2018-11-23T16:35:38.275Z,4.60
2018-11-23T16:38:08.716Z,4.50
2018-11-23T16:40:39.797Z,4.30
2018-11-23T16:43:09.488Z,4.20
2018-11-23T16:45:38.670Z,4.20
2018-11-23T16:48:08.918Z,4.30
2018-11-23T16:50:37.405Z,4.20
2018-11-23T16:53:06.286Z,4.20
2018-11-23T16:55:35.125Z,4.10
2018-11-23T16:58:04.975Z,4.10
2018-11-23T17:00:34.781Z,4.00
2018-11-23T17:03:04.804Z,3.90
2018-11-23T17:05:35.123Z,3.90
2018-11-23T17:08:03.600Z,3.80
2018-11-23T17:10:32.082Z,3.70
2018-11-23T17:13:00.557Z,3.70
2018-11-23T17:15:29.598Z,3.80
2018-11-23T17:17:58.135Z,3.80
2018-11-23T17:20:28.063Z,3.70
2018-11-23T17:22:58.035Z,4.00
2018-11-23T17:25:27.274Z,4.20
2018-11-23T17:27:57.492Z,4.20
2018-11-23T17:30:28.053Z,4.20
2018-11-23T17:32:56.729Z,4.20
2018-11-23T17:35:25.718Z,4.30
2018-11-23T17:37:54.234Z,4.20
2018-11-23T17:40:23.901Z,4.20
2018-11-23T17:42:52.787Z,4.10
2018-11-23T17:45:23.818Z,4.10
2018-11-23T17:47:53.001Z,4.10
2018-11-23T17:50:25.073Z,4.00
2018-11-23T17:52:53.770Z,3.90
2018-11-23T17:55:22.266Z,3.90
2018-11-23T17:57:51.865Z,3.90
2018-11-23T18:00:22.012Z,4.00
2018-11-23T18:02:51.403Z,4.00
2018-11-23T18:05:20.895Z,4.00
2018-11-23T18:07:50.484Z,4.00
2018-11-23T18:10:21.244Z,4.10
2018-11-23T18:12:57.166Z,4.10
2018-11-23T18:15:27.736Z,4.10
2018-11-23T18:17:57.296Z,4.10
2018-11-23T18:20:27.403Z,4.20
2018-11-23T18:22:56.618Z,4.20
2018-11-23T18:25:29.614Z,4.20
2018-11-23T18:28:00.237Z,4.30
2018-11-23T18:30:30.117Z,4.30
2018-11-23T18:32:58.821Z,4.20
2018-11-23T18:35:27.325Z,4.20
2018-11-23T18:37:56.411Z,4.10
2018-11-23T18:40:24.986Z,4.10
2018-11-23T18:42:54.821Z,4.10
2018-11-23T18:45:23.351Z,4.10
2018-11-23T18:47:51.890Z,4.00
2018-11-23T18:50:20.392Z,4.00
2018-11-23T18:52:49.653Z,4.00
2018-11-23T18:55:18.515Z,3.90
2018-11-23T18:57:46.593Z,3.80
2018-11-23T19:00:16.136Z,3.70
2018-11-23T19:02:45.750Z,3.60
2018-11-23T19:05:22.542Z,3.50
2018-11-23T19:07:51.021Z,3.40
2018-11-23T19:10:19.497Z,3.50
2018-11-23T19:12:48.038Z,3.50
2018-11-23T19:15:25.136Z,3.50
2018-11-23T19:17:46.302Z,3.60
2018-11-23T19:20:16.973Z,3.50
2018-11-23T19:22:46.543Z,3.50
2018-11-23T19:25:15.022Z,3.60
2018-11-23T19:27:43.489Z,3.60
2018-11-23T19:30:14.281Z,3.60
2018-11-23T19:32:42.758Z,3.60
2018-11-23T19:35:11.201Z,3.50
2018-11-23T19:37:40.422Z,3.40
2018-11-23T19:40:12.221Z,3.50
2018-11-23T19:42:41.248Z,3.50
2018-11-23T19:45:11.995Z,3.50
2018-11-23T19:47:40.479Z,3.50
2018-11-23T19:50:11.647Z,3.40
2018-11-23T19:52:40.509Z,3.20
2018-11-23T19:55:09.926Z,3.10
2018-11-23T19:57:39.704Z,2.90
2018-11-23T20:00:17.018Z,2.90
2018-11-23T20:02:46.069Z,2.90
2018-11-23T20:05:14.573Z,2.90
2018-11-23T20:07:43.401Z,3.00
2018-11-23T20:10:15.121Z,3.00
2018-11-23T20:12:44.114Z,3.00
2018-11-23T20:15:14.886Z,3.00
2018-11-23T20:17:43.474Z,3.00
2018-11-23T20:20:13.215Z,2.90
2018-11-23T20:22:42.397Z,2.90
2018-11-23T20:25:14.948Z,2.80
2018-11-23T20:27:43.702Z,2.90
2018-11-23T20:30:16.227Z,3.00
2018-11-23T20:32:44.833Z,2.90
2018-11-23T20:35:14.572Z,2.80
2018-11-23T20:37:43.009Z,2.70
2018-11-23T20:40:21.418Z,2.60
2018-11-23T20:42:49.842Z,2.50
2018-11-23T20:45:18.347Z,2.40
2018-11-23T20:47:46.801Z,2.20
2018-11-23T20:50:16.418Z,2.20
2018-11-23T20:52:45.011Z,2.50
2018-11-23T20:55:17.481Z,2.80
2018-11-23T20:57:45.948Z,3.10
2018-11-23T21:00:15.477Z,3.30
2018-11-23T21:02:44.412Z,3.30
2018-11-23T21:05:14.160Z,3.30
2018-11-23T21:07:42.606Z,3.20
2018-11-23T21:10:19.927Z,3.30
2018-11-23T21:12:41.130Z,3.20
2018-11-23T21:15:18.125Z,3.30
2018-11-23T21:17:46.683Z,3.40
2018-11-23T21:20:15.159Z,3.40
2018-11-23T21:22:43.589Z,3.30
2018-11-23T21:25:12.290Z,3.20
2018-11-23T21:27:40.745Z,3.10
2018-11-23T21:30:14.390Z,3.00
2018-11-23T21:32:42.849Z,2.90
2018-11-23T21:35:11.878Z,2.80
2018-11-23T21:37:40.325Z,2.80
2018-11-23T21:40:11.766Z,2.70
2018-11-23T21:42:40.265Z,2.70
2018-11-23T21:45:11.270Z,2.80
2018-11-23T21:47:39.799Z,2.80
2018-11-23T21:50:12.049Z,2.70
2018-11-23T21:52:40.538Z,2.70
2018-11-23T21:55:14.054Z,2.80
2018-11-23T21:57:42.486Z,2.80
2018-11-23T22:00:12.462Z,2.80
2018-11-23T22:02:41.441Z,2.90
2018-11-23T22:05:10.268Z,2.90
2018-11-23T22:07:38.734Z,3.10
2018-11-23T22:10:12.107Z,3.20
2018-11-23T22:12:40.771Z,3.20
2018-11-23T22:15:10.942Z,3.30
2018-11-23T22:17:39.425Z,3.40
2018-11-23T22:20:16.129Z,3.30
2018-11-23T22:22:44.574Z,3.30
2018-11-23T22:25:14.857Z,3.40
2018-11-23T22:27:43.576Z,3.40
2018-11-23T22:30:19.361Z,3.40
2018-11-23T22:32:47.772Z,3.40
2018-11-23T22:35:16.224Z,3.30
2018-11-23T22:37:44.697Z,3.20
2018-11-23T22:40:14.491Z,3.10
2018-11-23T22:42:44.365Z,3.00
2018-11-23T22:45:13.845Z,2.90
2018-11-23T22:47:42.257Z,2.90
2018-11-23T22:50:18.131Z,2.80
2018-11-23T22:52:47.715Z,2.70
2018-11-23T22:55:15.821Z,2.70
2018-11-23T22:57:44.266Z,2.70
2018-11-23T23:00:23.862Z,2.60
2018-11-23T23:02:52.309Z,2.60
2018-11-23T23:05:21.898Z,2.50
2018-11-23T23:07:50.502Z,2.50
2018-11-23T23:10:18.961Z,2.50
2018-11-23T23:12:47.742Z,2.50
2018-11-23T23:15:16.486Z,2.50
2018-11-23T23:17:45.116Z,2.50
2018-11-23T23:20:16.023Z,2.50
2018-11-23T23:22:44.476Z,2.40
2018-11-23T23:25:13.909Z,2.50
2018-11-23T23:27:42.298Z,2.40
2018-11-23T23:30:12.879Z,2.40
2018-11-23T23:32:41.371Z,2.40
2018-11-23T23:35:10.813Z,2.30
2018-11-23T23:37:39.611Z,2.30
2018-11-23T23:40:13.236Z,2.20
2018-11-23T23:42:41.629Z,2.10
2018-11-23T23:45:13.180Z,2.00
2018-11-23T23:47:41.583Z,2.10
2018-11-23T23:50:21.705Z,2.10
2018-11-23T23:52:50.885Z,2.10
2018-11-23T23:55:19.775Z,2.20
2018-11-23T23:57:48.729Z,2.30
